createdAt,value
2023-04-18T00:03:39.634Z,9.00
2023-04-18T00:09:42.900Z,9.10
2023-04-18T00:15:46.730Z,9.10
2023-04-18T00:21:49.940Z,9.00
2023-04-18T00:27:52.535Z,9.00
2023-04-18T00:33:55.072Z,9.00
2023-04-18T00:39:59.565Z,9.10
2023-04-18T00:46:03.087Z,9.10
2023-04-18T00:52:05.334Z,9.10
2023-04-18T00:58:08.663Z,9.10
2023-04-18T01:04:10.982Z,9.10
2023-04-18T01:10:15.691Z,9.00
2023-04-18T01:16:18.301Z,9.00
2023-04-18T01:22:20.775Z,9.00
2023-04-18T01:28:23.462Z,9.10
2023-04-18T01:34:25.763Z,9.10
2023-04-18T01:40:28.208Z,9.10
2023-04-18T01:46:31.165Z,9.20
2023-04-18T01:52:33.873Z,9.20
2023-04-18T01:58:36.371Z,9.20
2023-04-18T02:04:38.852Z,9.20
2023-04-18T02:10:41.898Z,9.20
2023-04-18T02:16:44.783Z,9.20
2023-04-18T02:22:47.852Z,9.10
2023-04-18T02:28:50.487Z,9.10
2023-04-18T02:34:52.912Z,9.10
2023-04-18T02:40:55.418Z,9.20
2023-04-18T02:46:58.130Z,9.20
2023-04-18T02:53:02.029Z,9.20
2023-04-18T02:59:16.461Z,9.10
2023-04-18T03:05:45.314Z,9.20
2023-04-18T03:11:47.899Z,9.20
2023-04-18T03:17:52.487Z,9.20
2023-04-18T03:23:57.210Z,9.10
2023-04-18T03:29:59.524Z,9.10
2023-04-18T03:36:02.308Z,9.10
2023-04-18T03:42:04.576Z,9.10
2023-04-18T03:48:07.891Z,9.20
2023-04-18T03:54:16.554Z,9.20
2023-04-18T04:00:19.276Z,9.30
2023-04-18T04:06:32.784Z,9.40
2023-04-18T04:12:36.600Z,9.50
2023-04-18T04:18:39.610Z,9.50
2023-04-18T04:24:43.430Z,9.50
2023-04-18T04:30:54.374Z,9.60
2023-04-18T04:36:57.541Z,9.60
2023-04-18T04:43:02.600Z,9.60
2023-04-18T04:49:12.466Z,9.70
2023-04-18T04:55:14.934Z,9.90
2023-04-18T05:01:18.946Z,10.00
2023-04-18T05:07:21.633Z,10.10
2023-04-18T05:13:24.310Z,10.30
2023-04-18T05:19:26.448Z,10.60
2023-04-18T05:25:30.086Z,10.80
2023-04-18T05:31:32.739Z,10.80
2023-04-18T05:37:35.196Z,10.70
2023-04-18T05:43:37.610Z,10.70
2023-04-18T05:49:39.870Z,10.70
2023-04-18T05:55:42.482Z,10.80
2023-04-18T06:01:45.100Z,10.80
2023-04-18T06:07:48.756Z,11.20
2023-04-18T06:13:51.179Z,11.50
2023-04-18T06:19:53.628Z,11.60
2023-04-18T06:25:57.001Z,11.70
2023-04-18T06:32:00.096Z,11.90
2023-04-18T06:38:02.613Z,12.00
2023-04-18T06:44:05.275Z,12.10
2023-04-18T06:50:08.183Z,12.30
2023-04-18T06:56:10.805Z,12.40
2023-04-18T07:02:13.522Z,12.50
2023-04-18T07:08:16.110Z,12.60
2023-04-18T07:14:20.420Z,12.50
2023-04-18T07:20:23.015Z,12.90
2023-04-18T07:26:27.145Z,12.80
2023-04-18T07:32:29.366Z,12.80
2023-04-18T07:38:31.957Z,13.10
2023-04-18T07:44:35.915Z,13.60
2023-04-18T07:50:38.604Z,13.70
2023-04-18T07:56:41.404Z,14.30
2023-04-18T08:02:43.829Z,14.80
2023-04-18T08:08:47.041Z,14.80
2023-04-18T08:14:49.475Z,15.30
2023-04-18T08:20:52.200Z,15.90
2023-04-18T08:26:54.744Z,18.50
2023-04-18T08:32:57.125Z,22.60
2023-04-18T08:38:59.934Z,25.40
2023-04-18T08:45:02.337Z,26.90
2023-04-18T08:51:05.427Z,26.20
2023-04-18T08:57:09.200Z,25.90
2023-04-18T09:03:16.243Z,25.60
2023-04-18T09:09:19.927Z,24.90
2023-04-18T09:15:24.697Z,24.10
2023-04-18T09:21:28.446Z,26.40
2023-04-18T09:27:35.432Z,25.50
2023-04-18T09:33:38.502Z,26.40
2023-04-18T09:39:43.517Z,25.80
2023-04-18T09:45:48.402Z,25.30
2023-04-18T09:51:52.453Z,24.20
2023-04-18T09:57:55.781Z,24.30
2023-04-18T10:04:01.545Z,22.50
2023-04-18T10:10:04.360Z,23.40
2023-04-18T10:16:07.361Z,25.10
2023-04-18T10:22:10.204Z,25.20
2023-04-18T10:28:12.809Z,25.50
2023-04-18T10:34:18.616Z,23.20
2023-04-18T10:40:34.691Z,24.50
2023-04-18T10:46:37.792Z,24.70
2023-04-18T10:52:40.292Z,26.50
2023-04-18T10:58:44.693Z,25.30
2023-04-18T11:04:59.106Z,23.90
2023-04-18T11:11:07.503Z,23.00
2023-04-18T11:17:24.356Z,24.20
2023-04-18T11:23:27.760Z,21.50
2023-04-18T11:29:30.295Z,20.00
2023-04-18T11:35:37.932Z,18.10
2023-04-18T11:41:42.177Z,17.60
2023-04-18T11:47:46.771Z,17.50
2023-04-18T11:53:49.371Z,17.00
2023-04-18T11:59:52.848Z,17.10
2023-04-18T12:06:01.799Z,18.00
2023-04-18T12:12:04.883Z,18.20
2023-04-18T12:18:10.884Z,17.60
2023-04-18T12:24:16.157Z,17.30
2023-04-18T12:30:22.816Z,16.90
2023-04-18T12:36:25.760Z,17.20
2023-04-18T12:42:28.141Z,16.80
2023-04-18T12:48:32.432Z,17.20
2023-04-18T12:54:37.924Z,17.50
2023-04-18T13:00:41.194Z,17.60
2023-04-18T13:06:43.877Z,17.10
2023-04-18T13:12:47.239Z,16.70
2023-04-18T13:18:49.850Z,16.60
2023-04-18T13:24:52.315Z,16.70
2023-04-18T13:30:54.903Z,16.30
2023-04-18T13:36:58.955Z,16.40
2023-04-18T13:43:01.473Z,16.40
2023-04-18T13:49:03.716Z,16.50
2023-04-18T13:55:06.738Z,16.40
2023-04-18T14:01:09.384Z,16.30
2023-04-18T14:07:12.135Z,16.40
2023-04-18T14:13:14.813Z,16.40
2023-04-18T14:19:18.272Z,16.80
2023-04-18T14:25:20.874Z,16.80
2023-04-18T14:31:23.468Z,16.60
2023-04-18T14:37:25.923Z,16.50
2023-04-18T14:43:28.327Z,16.40
2023-04-18T14:49:30.561Z,16.60
2023-04-18T14:55:34.118Z,16.50
2023-04-18T15:01:36.865Z,16.40
2023-04-18T15:07:39.541Z,16.10
2023-04-18T15:13:41.914Z,16.10
2023-04-18T15:19:44.439Z,16.10
2023-04-18T15:25:47.071Z,15.70
2023-04-18T15:31:49.488Z,15.60
2023-04-18T15:37:54.086Z,15.50
2023-04-18T15:43:56.412Z,15.40
2023-04-18T15:49:58.695Z,15.40
2023-04-18T15:56:02.230Z,15.20
2023-04-18T16:02:06.905Z,15.10
2023-04-18T16:08:09.971Z,14.90
2023-04-18T16:14:12.548Z,14.80
2023-04-18T16:20:15.004Z,14.60
2023-04-18T16:26:17.266Z,14.40
2023-04-18T16:32:19.684Z,14.20
2023-04-18T16:38:23.965Z,14.10
2023-04-18T16:44:27.610Z,14.00
2023-04-18T16:50:29.853Z,13.90
2023-04-18T16:56:32.291Z,13.80
2023-04-18T17:02:35.335Z,13.70
2023-04-18T17:08:37.791Z,13.60
2023-04-18T17:14:40.161Z,13.50
2023-04-18T17:20:42.901Z,13.40
2023-04-18T17:26:45.487Z,13.30
2023-04-18T17:32:48.453Z,13.30
2023-04-18T17:38:51.664Z,13.10
2023-04-18T17:44:54.318Z,13.10
2023-04-18T17:50:56.692Z,13.00
2023-04-18T17:56:59.032Z,13.00
2023-04-18T18:03:02.118Z,12.90
2023-04-18T18:09:05.700Z,12.90
2023-04-18T18:15:12.003Z,12.80
2023-04-18T18:21:14.606Z,12.80
2023-04-18T18:27:20.053Z,12.70
2023-04-18T18:33:22.521Z,12.60
2023-04-18T18:39:24.874Z,12.50
2023-04-18T18:45:27.098Z,12.50
2023-04-18T18:51:29.929Z,12.40
2023-04-18T18:57:32.532Z,12.40
2023-04-18T19:03:35.159Z,12.20
2023-04-18T19:09:37.601Z,12.20
2023-04-18T19:15:39.973Z,12.20
2023-04-18T19:21:46.468Z,12.10
2023-04-18T19:27:49.196Z,12.10
2023-04-18T19:33:51.413Z,12.10
2023-04-18T19:39:53.852Z,12.10
2023-04-18T19:45:56.341Z,12.00
2023-04-18T19:51:59.117Z,11.90
2023-04-18T19:58:01.720Z,11.80
2023-04-18T20:04:04.656Z,11.90
2023-04-18T20:10:09.334Z,11.90
2023-04-18T20:16:12.730Z,11.80
2023-04-18T20:22:15.384Z,11.80
2023-04-18T20:28:18.352Z,11.80
2023-04-18T20:34:20.905Z,11.70
2023-04-18T20:40:23.298Z,11.80
2023-04-18T20:46:25.813Z,11.70
2023-04-18T20:52:28.726Z,11.70
2023-04-18T20:58:31.370Z,11.70
2023-04-18T21:04:33.688Z,11.70
2023-04-18T21:10:35.966Z,11.70
2023-04-18T21:16:40.086Z,11.70
2023-04-18T21:22:42.418Z,11.60
2023-04-18T21:29:01.612Z,11.70
2023-04-18T21:35:03.884Z,11.70
2023-04-18T21:41:06.457Z,11.70
2023-04-18T21:47:08.766Z,11.60
2023-04-18T21:53:11.161Z,11.60
2023-04-18T21:59:13.748Z,11.50
2023-04-18T22:05:16.773Z,11.50
2023-04-18T22:11:19.492Z,11.50
2023-04-18T22:17:22.287Z,11.50
2023-04-18T22:23:25.191Z,11.50
2023-04-18T22:29:27.512Z,11.60
2023-04-18T22:35:29.689Z,11.50
2023-04-18T22:41:35.158Z,11.60
2023-04-18T22:47:37.311Z,11.60
2023-04-18T22:53:39.510Z,11.60
2023-04-18T22:59:41.706Z,11.50
2023-04-18T23:05:43.909Z,11.50
2023-04-18T23:11:46.675Z,11.50
2023-04-18T23:17:49.295Z,11.50
2023-04-18T23:23:51.776Z,11.50
2023-04-18T23:29:54.173Z,11.40
2023-04-18T23:35:56.651Z,11.40
2023-04-18T23:41:59.329Z,11.40
2023-04-18T23:48:01.940Z,11.40
2023-04-18T23:54:04.256Z,11.40
